地図

経路データ

SID SEASON NUMBER BASIN SUBBASIN NAME ISO_TIME NATURE LAT LON WMO_WIND WMO_PRES WMO_AGENCY TRACK_TYPE DIST2LAND LANDFALL IFLAG USA_AGENCY USA_ATCF_ID USA_LAT USA_LON USA_RECORD USA_STATUS USA_WIND USA_PRES USA_SSHS USA_R34_NE USA_R34_SE USA_R34_SW USA_R34_NW USA_R50_NE USA_R50_SE USA_R50_SW USA_R50_NW USA_R64_NE USA_R64_SE USA_R64_SW USA_R64_NW USA_POCI USA_ROCI USA_RMW USA_EYE TOKYO_LAT TOKYO_LON TOKYO_GRADE TOKYO_WIND TOKYO_PRES TOKYO_R50_DIR TOKYO_R50_LONG TOKYO_R50_SHORT TOKYO_R30_DIR TOKYO_R30_LONG TOKYO_R30_SHORT TOKYO_LAND CMA_LAT CMA_LON CMA_CAT CMA_WIND CMA_PRES HKO_LAT HKO_LON HKO_CAT HKO_WIND HKO_PRES NEWDELHI_LAT NEWDELHI_LON NEWDELHI_GRADE NEWDELHI_WIND NEWDELHI_PRES NEWDELHI_CI NEWDELHI_DP NEWDELHI_POCI REUNION_LAT REUNION_LON REUNION_TYPE REUNION_WIND REUNION_PRES REUNION_TNUM REUNION_CI REUNION_RMW REUNION_R34_NE REUNION_R34_SE REUNION_R34_SW REUNION_R34_NW REUNION_R50_NE REUNION_R50_SE REUNION_R50_SW REUNION_R50_NW REUNION_R64_NE REUNION_R64_SE REUNION_R64_SW REUNION_R64_NW BOM_LAT BOM_LON BOM_TYPE BOM_WIND BOM_PRES BOM_TNUM BOM_CI BOM_RMW BOM_R34_NE BOM_R34_SE BOM_R34_SW BOM_R34_NW BOM_R50_NE BOM_R50_SE BOM_R50_SW BOM_R50_NW BOM_R64_NE BOM_R64_SE BOM_R64_SW BOM_R64_NW BOM_ROCI BOM_POCI BOM_EYE BOM_POS_METHOD BOM_PRES_METHOD NADI_LAT NADI_LON NADI_CAT NADI_WIND NADI_PRES WELLINGTON_LAT WELLINGTON_LON WELLINGTON_WIND WELLINGTON_PRES DS824_LAT DS824_LON DS824_STAGE DS824_WIND DS824_PRES TD9636_LAT TD9636_LON TD9636_STAGE TD9636_WIND TD9636_PRES TD9635_LAT TD9635_LON TD9635_WIND TD9635_PRES TD9635_ROCI NEUMANN_LAT NEUMANN_LON NEUMANN_CLASS NEUMANN_WIND NEUMANN_PRES MLC_LAT MLC_LON MLC_CLASS MLC_WIND MLC_PRES USA_GUST BOM_GUST BOM_GUST_PER REUNION_GUST REUNION_GUST_PER USA_SEAHGT USA_SEARAD_NE USA_SEARAD_SE USA_SEARAD_SW USA_SEARAD_NW STORM_SPEED STORM_DIR
1997177N21090 1997 44 NI BB NOT_NAMED 1997-06-26 03:00:00 NR 21.0000 89.5000 25 990 newdelhi main 78 67 ____O_________ -1 21.0000 89.5000 D 25 990 1.50000 4 9 270
1997177N21090 1997 44 NI BB NOT_NAMED 1997-06-26 06:00:00 NR 21.0000 89.0000 25 990 newdelhi main 67 49 ____O_________ -1 21.0000 89.0000 D 25 990 1.50000 4 8 287
1997177N21090 1997 44 NI BB NOT_NAMED 1997-06-26 09:00:00 NR 21.2328 88.6650 main 49 11 ____P_________ -1 21.2328 88.6650 D 27 988 4 7 317
1997177N21090 1997 44 NI BB NOT_NAMED 1997-06-26 12:00:00 NR 21.5000 88.5000 30 986 newdelhi main 11 11 ____O_________ -1 21.5000 88.5000 DD 30 986 2.00000 5 3 330
1997177N21090 1997 44 NI BB NOT_NAMED 1997-06-26 15:00:00 NR 21.4999 88.4997 main 11 11 ____P_________ -1 21.4999 88.4997 DD 30 986 5 0 0
1997177N21090 1997 44 NI BB NOT_NAMED 1997-06-26 18:00:00 NR 21.5000 88.5000 30 986 newdelhi main 11 0 ____O_________ -1 21.5000 88.5000 DD 30 986 2.00000 6 2 317
1997177N21090 1997 44 NI BB NOT_NAMED 1997-06-26 21:00:00 NR 21.6646 88.3349 main 0 0 ____P_________ -1 21.6646 88.3349 DD 30 985 7 317
1997177N21090 1997 44 NI BB NOT_NAMED 1997-06-27 00:00:00 NR 22.0000 88.0000 30 985 newdelhi main 0 0 ____O_________ -1 22.0000 88.0000 DD 30 985 2.00000 11 317
1997177N21090 1997 44 NI BB NOT_NAMED 1997-06-27 03:00:00 NR 22.5000 87.5000 newdelhi main 0 0 ____O_________ -1 22.5000 87.5000 DD 0.00000 11 298
1997177N21090 1997 44 NI BB NOT_NAMED 1997-06-27 06:00:00 NR 22.5000 87.0000 newdelhi main 0 0 ____O_________ -1 22.5000 87.0000 DD 0.00000 8 287
1997177N21090 1997 44 NI BB NOT_NAMED 1997-06-27 09:00:00 NR 22.7327 86.6991 main 0 0 ____P_________ -1 22.7327 86.6991 DD 7 317
1997177N21090 1997 44 NI BB NOT_NAMED 1997-06-27 12:00:00 NR 23.0000 86.5000 newdelhi main 0 0 ____O_________ -1 23.0000 86.5000 DD 0.00000 5 304
1997177N21090 1997 44 NI BB NOT_NAMED 1997-06-27 15:00:00 NR 23.0376 86.2123 main 0 0 ____P_________ -1 23.0376 86.2123 DD 5 270
1997177N21090 1997 44 NI BB NOT_NAMED 1997-06-27 18:00:00 NR 23.0000 86.0000 newdelhi main 0 0 ____O_________ -1 23.0000 86.0000 DD 0.00000 3 239
1997177N21090 1997 44 NI BB NOT_NAMED 1997-06-27 21:00:00 NR 22.8977 85.9659 main 0 0 ____P_________ -1 22.8977 85.9659 DD 0 0
1997177N21090 1997 44 NI BB NOT_NAMED 1997-06-28 00:00:00 NR 23.0000 86.0000 newdelhi main 0 0 ____O_________ -1 23.0000 86.0000 DD 0.00000 6 4
1997177N21090 1997 44 NI BB NOT_NAMED 1997-06-28 03:00:00 NR 23.5000 86.0000 newdelhi main 0 0 ____O_________ -1 23.5000 86.0000 DD 0.00000 11 335
1997177N21090 1997 44 NI BB NOT_NAMED 1997-06-28 06:00:00 NR 24.0000 85.5000 newdelhi main 0 0 ____O_________ -1 24.0000 85.5000 DD 0.00000 7 331
1997177N21090 1997 44 NI BB NOT_NAMED 1997-06-28 09:00:00 NR 24.1024 85.6304 main 0 0 ____P_________ -1 24.1024 85.6304 DD 5 90
1997177N21090 1997 44 NI BB NOT_NAMED 1997-06-28 12:00:00 NR 24.0000 86.0000 newdelhi main 0 0 ____O_________ -1 24.0000 86.0000 DD 0.00000 4 109
1997177N21090 1997 44 NI BB NOT_NAMED 1997-06-28 15:00:00 NR 23.9624 86.0748 main 0 0 ____P_________ -1 23.9624 86.0748 DD 0 0
1997177N21090 1997 44 NI BB NOT_NAMED 1997-06-28 18:00:00 NR 24.0000 86.0000 newdelhi main 0 0 ____O_________ -1 24.0000 86.0000 DD 0.00000 4 314
1997177N21090 1997 44 NI BB NOT_NAMED 1997-06-28 21:00:00 NR 24.2673 85.7334 main 0 0 ____P_________ -1 24.2673 85.7334 DD 7 318
1997177N21090 1997 44 NI BB NOT_NAMED 1997-06-29 00:00:00 NR 24.5000 85.5000 newdelhi main 0 0 ____O_________ -1 24.5000 85.5000 DD 0.00000 3 317
1997177N21090 1997 44 NI BB NOT_NAMED 1997-06-29 03:00:00 NR 24.5000 85.5000 newdelhi main 0 0 ____O_________ -1 24.5000 85.5000 DD 0.00000 5 2
1997177N21090 1997 44 NI BB NOT_NAMED 1997-06-29 06:00:00 NR 25.0000 85.5000 newdelhi main 0 0 ____O_________ -1 25.0000 85.5000 DD 0.00000 8 3
1997177N21090 1997 44 NI BB NOT_NAMED 1997-06-29 09:00:00 NR 25.3011 85.5339 main 0 0 ____P_________ -1 25.3011 85.5339 DD 5 2
1997177N21090 1997 44 NI BB NOT_NAMED 1997-06-29 12:00:00 NR 25.5000 85.5000 newdelhi main 0 0 ____O_________ -1 25.5000 85.5000 DD 0.00000 5 334
1997177N21090 1997 44 NI BB NOT_NAMED 1997-06-29 15:00:00 NR 25.7332 85.3016 main 0 0 ____P_________ -1 25.7332 85.3016 DD 7 318
1997177N21090 1997 44 NI BB NOT_NAMED 1997-06-29 18:00:00 NR 26.0000 85.0000 newdelhi main 0 ____O_________ -1 26.0000 85.0000 D 0.00000 8 315

IBTrACS Databaseについて

本データベースは、米国NOAAが公開する1842年以降の世界の熱帯低気圧のベストトラックデータアーカイブInternational Best Track Archive for Climate Stewardship (IBTrACS)を、ウェブで閲覧しやすい形式に変換したものです。

最終更新日:2021-10-08